Nimrod, Minnesota
Current Conditions -  °F | °C
As of 7:33 PM on Tuesday 25 Nov 2014 (Local Time) from KSAZ Reporting Station
Clear Clear  
Wind Chill: 16°   Ceiling: Unl
Heat Index: 16°   Visibility: 10mi
Dew Point:   Wind: 3mph
Humidity: 68%   Direction: 130°SE
Pressure: 29.95"   Gusts: NA
Location:  46.64°N, 94.88°W
Report Text: KSAZ 260133Z AUTO 13003KT 10SM CLR M09/M14 A2995 RMK AO2
Loading
Personal Weather Stations






























Interactive Weather Map New forecast layout! Learn more

10-Day Weather Forecast

Advertisements
Track Severe Weather on mobile